Time;durP1;ratioP1;P1;durP2;ratioP2;P2;SDS_P1;SDS_P2;PMS_P1;PMS_P2;Temp;Humidity;BMP_temperature;BMP_pressure;BME280_temperature;BME280_humidity;BME280_pressure;Samples;Min_cycle;Max_cycle;Signal;HPM_P1;HPM_P2
2022/07/02 00:01:59;;;;;;;2.85;1.48;;;13.90;99.90;;;;;;5069966;28;20035;-67
2022/07/02 00:04:33;;;;;;;2.50;1.05;;;13.90;99.90;;;;;;5059640;28;20089;-67
2022/07/02 00:06:59;;;;;;;4.75;1.73;;;13.90;99.90;;;;;;5057869;28;20047;-67
2022/07/02 00:09:26;;;;;;;5.88;1.92;;;13.90;99.90;;;;;;5042785;28;20059;-67
2022/07/02 00:11:57;;;;;;;3.97;1.23;;;13.90;99.90;;;;;;5070446;28;20044;-67
2022/07/02 00:14:23;;;;;;;3.17;1.45;;;13.90;99.90;;;;;;5054608;28;20192;-67
2022/07/02 00:16:50;;;;;;;3.35;1.75;;;13.80;99.90;;;;;;5058701;28;20051;-67
2022/07/02 00:19:15;;;;;;;6.03;1.60;;;13.80;99.90;;;;;;5058268;28;20398;-67
2022/07/02 00:21:42;;;;;;;1.80;1.20;;;13.80;99.90;;;;;;5069840;28;20040;-67
2022/07/02 00:24:08;;;;;;;7.43;1.70;;;13.80;99.90;;;;;;5057840;28;22248;-67
2022/07/02 00:26:38;;;;;;;5.50;2.03;;;13.80;99.90;;;;;;5075094;28;20394;-67
2022/07/02 00:29:16;;;;;;;4.82;1.60;;;13.70;99.90;;;;;;5076496;28;20028;-67
2022/07/02 00:31:42;;;;;;;6.30;1.20;;;13.80;99.90;;;;;;5074848;28;20559;-67
2022/07/02 00:34:09;;;;;;;3.17;1.20;;;13.70;99.90;;;;;;5059343;28;20052;-68
2022/07/02 00:36:35;;;;;;;3.70;1.50;;;13.70;99.90;;;;;;5061211;28;20068;-67
2022/07/02 00:39:01;;;;;;;2.38;1.15;;;13.70;99.90;;;;;;5072027;28;20770;-67
2022/07/02 00:41:27;;;;;;;4.20;1.60;;;13.60;99.90;;;;;;5066405;28;20048;-67
2022/07/02 00:43:54;;;;;;;3.33;1.17;;;13.40;99.90;;;;;;5074107;28;20059;-67
2022/07/02 00:46:22;;;;;;;2.60;1.60;;;13.30;99.90;;;;;;5074050;28;20743;-67
2022/07/02 00:48:48;;;;;;;3.38;1.60;;;13.10;99.90;;;;;;5059646;28;21703;-67
2022/07/02 00:51:14;;;;;;;6.13;1.98;;;13.10;99.90;;;;;;5058492;28;20526;-67
2022/07/02 00:53:39;;;;;;;4.78;1.80;;;13.00;99.90;;;;;;5078261;28;20039;-67
2022/07/02 00:56:05;;;;;;;8.27;2.03;;;12.90;99.90;;;;;;5072827;28;20047;-67
2022/07/02 00:58:31;;;;;;;4.72;1.35;;;12.80;99.90;;;;;;5041681;28;20039;-67
2022/07/02 01:00:58;;;;;;;3.67;1.63;;;12.90;99.90;;;;;;5078025;28;20077;-67
2022/07/02 01:03:25;;;;;;;3.58;1.80;;;12.90;99.90;;;;;;5058683;28;20475;-67
2022/07/02 01:05:52;;;;;;;4.50;2.22;;;12.80;99.90;;;;;;5074063;28;20036;-67
2022/07/02 01:11:07;;;;;;;3.08;2.20;;;13.00;99.90;;;;;;5059282;28;20048;-67
2022/07/02 01:13:33;;;;;;;4.63;2.00;;;12.90;99.90;;;;;;5070984;28;20070;-67
2022/07/02 01:15:59;;;;;;;3.63;1.60;;;12.90;99.90;;;;;;5057404;28;21092;-67
2022/07/02 01:18:25;;;;;;;4.22;2.00;;;13.00;99.90;;;;;;5074447;28;20044;-67
2022/07/02 01:20:50;;;;;;;2.75;1.70;;;13.00;99.90;;;;;;5077851;28;20028;-67
2022/07/02 01:23:16;;;;;;;4.65;1.98;;;13.00;99.90;;;;;;5073809;28;20039;-67
2022/07/02 01:25:49;;;;;;;4.78;1.75;;;13.00;99.90;;;;;;5068499;28;20067;-67
2022/07/02 01:28:15;;;;;;;6.20;2.25;;;13.10;99.90;;;;;;5056280;28;20070;-67
2022/07/02 01:30:40;;;;;;;4.57;2.08;;;13.10;99.90;;;;;;5057550;28;20040;-67
2022/07/02 01:33:06;;;;;;;4.13;1.92;;;13.20;99.90;;;;;;5072122;28;20040;-67
2022/07/02 01:35:31;;;;;;;5.05;2.40;;;13.20;99.90;;;;;;5060352;28;20127;-67
2022/07/02 01:37:57;;;;;;;4.93;1.70;;;13.20;99.90;;;;;;5070399;28;20054;-67
2022/07/02 01:40:23;;;;;;;4.57;2.50;;;13.20;99.90;;;;;;5055802;28;20394;-67
2022/07/02 01:42:49;;;;;;;3.65;1.60;;;13.20;99.90;;;;;;5058777;28;20970;-67
2022/07/02 01:45:14;;;;;;;3.20;1.55;;;13.20;99.90;;;;;;5075759;28;20024;-67
2022/07/02 01:47:40;;;;;;;3.00;1.70;;;13.20;99.90;;;;;;5075853;28;20832;-67
2022/07/02 01:50:06;;;;;;;4.80;1.95;;;13.10;99.90;;;;;;5054075;28;20043;-67
2022/07/02 01:52:32;;;;;;;3.00;2.05;;;13.10;99.90;;;;;;5054136;28;20048;-67
2022/07/02 01:54:57;;;;;;;4.57;1.80;;;13.10;99.90;;;;;;5075608;28;21820;-67
2022/07/02 01:57:23;;;;;;;4.20;2.70;;;13.20;99.90;;;;;;5077354;28;20115;-67
2022/07/02 01:59:49;;;;;;;14.80;2.75;;;13.00;99.90;;;;;;5063957;28;20048;-67
2022/07/02 02:02:14;;;;;;;7.22;2.00;;;13.00;99.90;;;;;;5057363;28;20037;-67
2022/07/02 02:04:40;;;;;;;8.88;2.78;;;13.10;99.90;;;;;;5056075;28;20394;-67
2022/07/02 02:07:06;;;;;;;6.32;2.13;;;13.00;99.90;;;;;;5062660;28;20036;-67
2022/07/02 02:09:32;;;;;;;3.67;1.92;;;13.10;99.90;;;;;;5058811;28;20058;-67
2022/07/02 02:11:59;;;;;;;2.88;1.77;;;13.00;99.90;;;;;;5079460;28;20039;-67
2022/07/02 02:14:24;;;;;;;4.53;2.08;;;13.10;99.90;;;;;;5061275;28;20055;-67
2022/07/02 02:16:50;;;;;;;4.90;2.42;;;13.00;99.90;;;;;;5079537;28;20039;-67
2022/07/02 02:19:16;;;;;;;5.60;2.60;;;13.00;99.90;;;;;;5061501;28;20040;-67
2022/07/02 02:21:41;;;;;;;8.73;2.65;;;13.00;99.90;;;;;;5060246;28;20063;-67
2022/07/02 02:24:07;;;;;;;3.67;2.33;;;13.00;99.90;;;;;;5072091;28;20531;-68
2022/07/02 02:26:33;;;;;;;3.85;2.17;;;12.90;99.90;;;;;;5081616;28;20035;-67
2022/07/02 02:28:58;;;;;;;3.53;2.38;;;12.90;99.90;;;;;;5079092;28;20028;-67
2022/07/02 02:31:24;;;;;;;2.97;2.00;;;12.90;99.90;;;;;;5075780;28;20043;-67
2022/07/02 02:33:50;;;;;;;5.72;2.25;;;12.90;99.90;;;;;;5060855;28;20044;-67
2022/07/02 02:36:17;;;;;;;2.88;2.20;;;12.80;99.90;;;;;;5061856;28;20043;-67
2022/07/02 02:38:43;;;;;;;7.03;2.15;;;12.80;99.90;;;;;;5062700;28;20359;-67
2022/07/02 02:41:09;;;;;;;6.72;2.65;;;12.80;99.90;;;;;;5078641;28;21785;-67
2022/07/02 02:43:36;;;;;;;4.68;3.08;;;12.80;99.90;;;;;;5058018;28;20044;-67
2022/07/02 02:46:02;;;;;;;2.58;2.38;;;12.80;99.90;;;;;;5078696;28;20040;-67
2022/07/02 02:48:29;;;;;;;4.32;2.63;;;12.80;99.90;;;;;;5063253;28;20040;-67
2022/07/02 02:50:55;;;;;;;5.43;2.97;;;12.80;99.90;;;;;;5060009;28;20397;-67
2022/07/02 02:53:21;;;;;;;5.70;3.08;;;12.80;99.90;;;;;;5079073;28;20413;-67
2022/07/02 02:55:46;;;;;;;6.35;3.40;;;12.80;99.90;;;;;;5086468;28;20039;-67
2022/07/02 02:58:12;;;;;;;6.57;3.97;;;12.70;99.90;;;;;;5072108;28;20405;-67
2022/07/02 03:00:38;;;;;;;5.18;3.25;;;12.80;99.90;;;;;;5076394;28;20047;-67
2022/07/02 03:03:03;;;;;;;5.28;3.58;;;12.80;99.90;;;;;;5079779;28;20076;-67
2022/07/02 03:05:29;;;;;;;3.20;2.85;;;12.80;99.90;;;;;;5058729;28;20047;-67
2022/07/02 03:07:55;;;;;;;8.82;3.30;;;12.80;99.90;;;;;;5076064;28;20065;-67
2022/07/02 03:10:20;;;;;;;5.13;3.88;;;12.80;99.90;;;;;;5078423;28;20169;-67
2022/07/02 03:12:46;;;;;;;7.57;4.22;;;12.80;99.90;;;;;;5078107;28;20066;-67
2022/07/02 03:15:13;;;;;;;5.30;3.63;;;12.80;99.90;;;;;;5055442;28;20669;-67
2022/07/02 03:17:39;;;;;;;5.75;3.50;;;12.80;99.90;;;;;;5040106;28;20054;-67
2022/07/02 03:20:06;;;;;;;6.03;3.80;;;12.80;99.90;;;;;;5076378;28;20047;-67
2022/07/02 03:22:31;;;;;;;8.93;4.03;;;12.90;99.90;;;;;;5058885;28;20068;-67
2022/07/02 03:24:57;;;;;;;9.43;3.67;;;12.80;99.90;;;;;;5058181;28;20159;-67
2022/07/02 03:27:24;;;;;;;7.75;3.97;;;12.90;99.90;;;;;;5075453;28;20149;-67
2022/07/02 03:29:50;;;;;;;5.93;3.90;;;12.90;99.90;;;;;;5076345;28;20138;-67
2022/07/02 03:32:16;;;;;;;5.80;4.20;;;12.90;99.90;;;;;;5081603;28;20110;-67
2022/07/02 03:34:41;;;;;;;6.40;4.35;;;12.90;99.90;;;;;;5081924;28;20043;-66
2022/07/02 03:37:07;;;;;;;7.10;3.55;;;12.90;99.90;;;;;;5075537;28;20405;-67
2022/07/02 03:39:32;;;;;;;8.43;4.63;;;12.90;99.90;;;;;;5074003;28;20036;-67
2022/07/02 03:41:58;;;;;;;9.13;4.18;;;12.90;99.90;;;;;;5045570;28;20045;-67
2022/07/02 03:44:23;;;;;;;7.88;4.05;;;13.00;99.90;;;;;;5079423;28;20071;-67
2022/07/02 03:46:49;;;;;;;7.20;4.22;;;12.90;99.90;;;;;;5059612;28;20044;-67
2022/07/02 03:49:15;;;;;;;5.40;4.10;;;12.90;99.90;;;;;;5075653;28;20126;-67
2022/07/02 03:51:40;;;;;;;4.97;4.13;;;12.90;99.90;;;;;;5070485;28;20531;-67
2022/07/02 03:54:06;;;;;;;12.80;4.78;;;13.00;99.90;;;;;;5059062;28;20115;-67
2022/07/02 03:56:32;;;;;;;5.00;4.05;;;13.10;99.90;;;;;;5058673;28;20076;-67
2022/07/02 03:58:57;;;;;;;7.05;4.40;;;13.20;99.90;;;;;;5059049;28;20781;-67
2022/07/02 04:01:23;;;;;;;9.15;4.47;;;13.20;99.90;;;;;;5077807;28;20051;-67
2022/07/02 04:03:48;;;;;;;6.03;4.35;;;13.30;99.90;;;;;;5079596;28;20580;-67
2022/07/02 04:06:14;;;;;;;4.55;4.13;;;13.30;99.90;;;;;;5059381;28;20043;-67
2022/07/02 04:08:40;;;;;;;7.07;4.53;;;13.30;99.90;;;;;;5073754;28;21361;-67
2022/07/02 04:11:05;;;;;;;4.22;3.60;;;13.50;99.90;;;;;;5066384;28;20036;-67
2022/07/02 04:13:31;;;;;;;4.97;4.00;;;13.80;99.90;;;;;;5056241;28;20039;-67
2022/07/02 04:15:56;;;;;;;4.45;3.40;;;13.90;99.90;;;;;;5059727;28;20038;-67
2022/07/02 04:18:22;;;;;;;5.90;3.72;;;14.00;99.90;;;;;;5076231;28;20152;-67
2022/07/02 04:20:48;;;;;;;8.85;4.22;;;14.10;99.90;;;;;;5058152;28;20162;-67
2022/07/02 04:23:13;;;;;;;4.80;3.78;;;14.20;99.90;;;;;;5071743;28;20036;-67
2022/07/02 04:25:39;;;;;;;5.10;3.80;;;14.40;99.90;;;;;;5044486;28;20048;-67
2022/07/02 04:28:05;;;;;;;3.88;3.20;;;14.50;99.90;;;;;;5070122;28;20129;-67
2022/07/02 04:30:31;;;;;;;4.43;3.17;;;14.70;99.90;;;;;;5057194;28;20043;-67
2022/07/02 04:32:56;;;;;;;8.63;3.60;;;15.20;99.90;;;;;;5077697;28;20032;-67
2022/07/02 04:35:22;;;;;;;7.45;3.65;;;16.30;99.90;;;;;;5058509;28;20139;-67
2022/07/02 04:37:48;;;;;;;5.10;2.15;;;17.70;99.90;;;;;;5055100;28;20072;-67
2022/07/02 04:40:14;;;;;;;6.32;2.65;;;19.00;99.90;;;;;;5075089;28;20063;-67
2022/07/02 04:42:39;;;;;;;4.65;2.50;;;20.10;99.90;;;;;;5070198;28;20036;-67
2022/07/02 04:45:05;;;;;;;7.32;2.50;;;20.80;99.90;;;;;;5054131;28;20047;-67
2022/07/02 04:47:31;;;;;;;3.90;2.50;;;21.70;99.90;;;;;;5071093;28;20047;-67
2022/07/02 04:49:57;;;;;;;3.67;2.00;;;22.60;99.90;;;;;;5072859;28;20047;-67
2022/07/02 04:52:23;;;;;;;5.28;1.90;;;23.60;99.90;;;;;;5062379;28;20047;-67
2022/07/02 04:54:50;;;;;;;4.32;2.10;;;24.30;99.90;;;;;;5077819;28;20032;-67
2022/07/02 04:57:16;;;;;;;5.40;2.08;;;25.00;99.90;;;;;;5076955;28;21687;-67
2022/07/02 04:59:44;;;;;;;6.80;2.08;;;25.70;99.90;;;;;;5077281;28;20044;-67
2022/07/02 05:02:10;;;;;;;5.35;2.88;;;26.30;99.90;;;;;;5080545;28;20054;-67
2022/07/02 05:04:36;;;;;;;7.65;2.47;;;26.70;99.90;;;;;;5057083;28;20069;-67
2022/07/02 05:07:01;;;;;;;4.00;2.08;;;27.30;99.90;;;;;;5074125;28;20071;-67
2022/07/02 05:09:27;;;;;;;4.32;1.95;;;27.70;99.90;;;;;;5073831;28;20040;-67
2022/07/02 05:11:52;;;;;;;5.20;2.30;;;28.30;99.20;;;;;;5057498;28;20048;-67
2022/07/02 05:14:18;;;;;;;2.45;1.75;;;28.70;98.70;;;;;;5077100;28;20031;-67
2022/07/02 05:16:44;;;;;;;4.97;2.53;;;28.50;97.70;;;;;;5077034;28;20066;-67
2022/07/02 05:19:09;;;;;;;3.53;1.52;;;28.40;97.10;;;;;;5074694;28;20493;-67
2022/07/02 05:21:37;;;;;;;4.75;2.05;;;28.80;97.10;;;;;;5054222;28;20052;-67
2022/07/02 05:24:03;;;;;;;2.92;1.60;;;29.30;96.60;;;;;;5040688;28;20133;-67
2022/07/02 05:26:29;;;;;;;8.55;2.70;;;29.70;95.40;;;;;;5061436;28;20043;-67
2022/07/02 05:28:55;;;;;;;2.97;1.70;;;29.50;94.70;;;;;;5061755;28;20442;-67
2022/07/02 05:31:21;;;;;;;6.88;1.90;;;28.30;94.90;;;;;;5064424;28;20039;-67
2022/07/02 05:33:46;;;;;;;4.45;1.75;;;27.20;95.60;;;;;;5082189;28;20031;-68
2022/07/02 05:36:12;;;;;;;4.75;1.90;;;26.30;96.30;;;;;;5076976;28;20464;-67
2022/07/02 05:38:38;;;;;;;6.20;1.92;;;25.80;97.20;;;;;;5058965;28;20042;-67
2022/07/02 05:41:03;;;;;;;4.60;1.92;;;25.10;97.60;;;;;;5053497;28;20036;-67
2022/07/02 05:43:29;;;;;;;5.00;1.77;;;24.80;98.40;;;;;;5070456;28;20063;-67
2022/07/02 05:45:55;;;;;;;8.57;2.55;;;24.60;98.90;;;;;;5050134;28;20397;-67
2022/07/02 05:48:20;;;;;;;3.55;1.80;;;24.30;99.10;;;;;;5053342;28;20158;-67
2022/07/02 05:50:46;;;;;;;4.85;1.70;;;24.00;99.30;;;;;;5071778;28;20042;-67
2022/07/02 05:53:13;;;;;;;5.53;1.80;;;23.80;99.70;;;;;;5069980;28;20101;-67
2022/07/02 05:55:39;;;;;;;3.33;1.70;;;23.80;99.90;;;;;;5067990;28;20089;-67
2022/07/02 05:58:04;;;;;;;6.68;2.60;;;23.50;99.90;;;;;;5052691;28;20414;-67
2022/07/02 06:00:30;;;;;;;4.35;2.03;;;23.30;99.90;;;;;;5071069;28;20084;-67
2022/07/02 06:02:56;;;;;;;6.80;2.22;;;23.00;99.90;;;;;;5068256;28;20113;-67
2022/07/02 06:07:38;;;;;;;4.10;1.75;;;23.00;99.90;;;;;;5071645;28;20504;-67
2022/07/02 06:08:08;;;;;;;3.92;1.83;;;22.70;99.90;;;;;;5051040;28;20426;-67
2022/07/02 06:10:33;;;;;;;4.32;1.90;;;22.50;99.90;;;;;;5052458;28;20977;-67
2022/07/02 06:12:59;;;;;;;5.13;1.80;;;22.40;99.90;;;;;;5051522;28;20047;-67
2022/07/02 06:15:25;;;;;;;6.93;2.10;;;22.40;99.90;;;;;;5066721;28;20440;-67
2022/07/02 06:17:50;;;;;;;5.60;2.00;;;22.50;99.90;;;;;;5050903;28;20059;-67
2022/07/02 06:20:16;;;;;;;5.35;1.90;;;22.70;99.90;;;;;;5053984;28;20085;-67
2022/07/02 06:22:42;;;;;;;3.78;1.50;;;22.70;99.90;;;;;;5035643;28;20047;-67
2022/07/02 06:25:08;;;;;;;5.63;1.95;;;22.90;99.90;;;;;;5050956;28;20448;-67
2022/07/02 06:27:34;;;;;;;5.63;1.40;;;22.90;99.90;;;;;;5050877;28;20036;-67
2022/07/02 06:30:04;;;;;;;4.07;1.45;;;22.90;99.90;;;;;;5051766;28;20043;-67
2022/07/02 06:32:31;;;;;;;5.22;1.48;;;22.90;99.90;;;;;;5049777;28;20039;-67
2022/07/02 06:34:57;;;;;;;5.55;1.52;;;22.90;99.90;;;;;;5070076;28;20393;-67
2022/07/02 06:37:23;;;;;;;4.53;1.45;;;23.00;99.90;;;;;;5051775;28;20131;-67
2022/07/02 06:39:49;;;;;;;4.20;1.33;;;23.00;99.90;;;;;;5052094;28;20049;-67
2022/07/02 06:42:28;;;;;;;6.10;1.30;;;23.00;99.90;;;;;;5049217;28;20048;-67
2022/07/02 06:44:56;;;;;;;6.03;1.70;;;23.10;99.90;;;;;;5046625;28;20048;-67
2022/07/02 06:47:22;;;;;;;2.92;1.00;;;23.20;99.90;;;;;;5052372;28;20119;-67
2022/07/02 06:49:49;;;;;;;3.28;0.90;;;23.30;99.90;;;;;;5045962;28;20046;-66
2022/07/02 06:52:15;;;;;;;3.30;1.33;;;23.40;99.90;;;;;;5045196;28;20051;-67
2022/07/02 06:54:42;;;;;;;8.35;1.25;;;23.40;99.90;;;;;;5060588;28;20043;-67
2022/07/02 06:57:08;;;;;;;7.05;0.80;;;23.50;99.90;;;;;;5058042;28;20047;-67
2022/07/02 06:59:34;;;;;;;2.22;0.98;;;23.60;99.90;;;;;;5048783;28;20143;-67
2022/07/02 07:02:00;;;;;;;4.65;0.90;;;23.60;99.90;;;;;;5052147;28;20482;-67
2022/07/02 07:04:29;;;;;;;3.30;0.70;;;23.60;99.90;;;;;;5073902;28;20048;-67
2022/07/02 07:06:56;;;;;;;7.78;1.00;;;23.80;99.70;;;;;;5074871;28;20553;-67
2022/07/02 07:09:23;;;;;;;10.27;1.63;;;23.90;99.60;;;;;;5076663;28;20040;-67
2022/07/02 07:11:48;;;;;;;2.10;1.02;;;23.80;99.20;;;;;;5073783;28;20051;-67
2022/07/02 07:14:14;;;;;;;2.58;0.70;;;23.80;99.40;;;;;;5054310;28;20059;-67
2022/07/02 07:16:40;;;;;;;6.82;1.02;;;23.90;99.80;;;;;;5077407;28;20044;-67
2022/07/02 07:19:06;;;;;;;11.43;1.98;;;24.00;99.50;;;;;;5058459;28;20043;-67
2022/07/02 07:21:32;;;;;;;3.92;1.25;;;23.90;98.90;;;;;;5079490;28;20043;-67
2022/07/02 07:23:58;;;;;;;4.65;0.93;;;23.90;99.00;;;;;;5072073;28;20406;-67
2022/07/02 07:26:23;;;;;;;3.63;0.93;;;23.80;99.10;;;;;;5050660;28;20039;-67
2022/07/02 07:28:49;;;;;;;5.05;0.85;;;23.90;98.80;;;;;;5054601;28;20076;-67
2022/07/02 07:31:20;;;;;;;10.00;1.33;;;23.90;99.20;;;;;;5056475;28;20513;-67
2022/07/02 07:33:49;;;;;;;9.63;0.90;;;23.90;98.80;;;;;;5077655;28;20044;-67
2022/07/02 07:36:15;;;;;;;8.98;1.60;;;23.80;98.90;;;;;;5072115;28;20039;-67
2022/07/02 07:38:41;;;;;;;7.32;1.58;;;23.80;99.00;;;;;;5063878;28;21207;-67
2022/07/02 07:41:07;;;;;;;5.82;1.00;;;23.90;99.30;;;;;;5080598;28;20142;-67
2022/07/02 07:43:33;;;;;;;6.63;2.15;;;24.00;98.80;;;;;;5083360;28;20039;-67
2022/07/02 07:45:59;;;;;;;3.08;0.65;;;23.90;99.00;;;;;;5066981;28;20058;-67
2022/07/02 07:48:25;;;;;;;3.75;0.85;;;24.10;98.50;;;;;;5063627;28;20048;-67
2022/07/02 07:50:51;;;;;;;6.40;0.82;;;24.00;97.70;;;;;;5059744;28;20078;-67
2022/07/02 07:53:16;;;;;;;6.97;1.10;;;24.00;97.60;;;;;;5076756;28;20521;-67
2022/07/02 07:55:42;;;;;;;6.85;0.70;;;24.00;98.00;;;;;;5085016;28;20082;-66
2022/07/02 07:58:08;;;;;;;7.13;0.60;;;24.10;98.50;;;;;;5084782;28;20043;-66
2022/07/02 08:00:34;;;;;;;5.25;0.93;;;24.30;98.30;;;;;;5065751;28;20051;-67
2022/07/02 08:03:00;;;;;;;3.85;0.47;;;24.20;97.00;;;;;;5077729;28;20122;-67
2022/07/02 08:05:25;;;;;;;2.97;0.70;;;24.10;96.80;;;;;;5063463;28;20040;-67
2022/07/02 08:07:51;;;;;;;6.95;0.73;;;24.10;97.20;;;;;;5063210;28;20083;-67
2022/07/02 08:10:17;;;;;;;5.22;0.52;;;24.00;96.60;;;;;;5074912;28;20467;-67
2022/07/02 08:12:43;;;;;;;4.03;0.50;;;24.10;96.60;;;;;;5075302;28;20051;-67
2022/07/02 08:15:09;;;;;;;7.93;0.60;;;24.10;97.20;;;;;;5064380;28;20048;-67
2022/07/02 08:17:36;;;;;;;8.93;0.73;;;24.10;97.10;;;;;;5057140;28;20066;-67
2022/07/02 08:20:04;;;;;;;6.78;0.90;;;24.10;96.70;;;;;;5058059;28;20036;-67
2022/07/02 08:22:30;;;;;;;20.90;1.42;;;24.10;96.50;;;;;;5063205;28;20051;-67
2022/07/02 08:24:56;;;;;;;5.97;0.40;;;24.10;96.60;;;;;;5058163;28;20194;-67
2022/07/02 08:27:21;;;;;;;5.40;0.50;;;24.30;97.00;;;;;;5059310;28;20047;-67
2022/07/02 08:29:47;;;;;;;5.13;0.60;;;24.40;96.60;;;;;;5061509;28;20130;-67
2022/07/02 08:32:12;;;;;;;6.32;0.68;;;24.40;96.50;;;;;;5078263;28;20044;-67
2022/07/02 08:34:38;;;;;;;2.55;0.30;;;24.30;96.60;;;;;;5074914;28;20400;-67
2022/07/02 08:37:04;;;;;;;7.30;0.70;;;24.60;96.50;;;;;;5063721;28;20674;-67
2022/07/02 08:39:29;;;;;;;4.28;0.40;;;24.40;96.70;;;;;;5072979;28;20047;-67
2022/07/02 08:41:57;;;;;;;6.10;0.30;;;24.60;97.00;;;;;;5054933;28;20042;-67
2022/07/02 08:44:25;;;;;;;3.70;0.32;;;24.70;96.20;;;;;;5073700;28;22541;-67
2022/07/02 08:46:51;;;;;;;5.72;0.40;;;24.80;96.00;;;;;;5076642;28;20042;-67
2022/07/02 08:49:21;;;;;;;17.25;0.63;;;24.80;95.30;;;;;;5074754;28;21561;-67
2022/07/02 08:51:54;;;;;;;3.65;0.30;;;24.90;95.20;;;;;;5058845;28;20043;-67
2022/07/02 08:54:22;;;;;;;5.82;0.50;;;25.00;95.30;;;;;;5075221;28;20134;-67
2022/07/02 08:56:48;;;;;;;2.50;0.30;;;24.80;94.90;;;;;;5057222;28;20051;-67
2022/07/02 08:59:16;;;;;;;3.20;0.30;;;25.00;94.80;;;;;;5064282;28;20101;-67
2022/07/02 09:01:42;;;;;;;7.50;0.57;;;25.00;94.40;;;;;;5075732;28;20074;-66
2022/07/02 09:04:08;;;;;;;1.00;0.20;;;25.10;94.80;;;;;;5044188;28;20130;-67
2022/07/02 09:06:37;;;;;;;8.68;0.55;;;25.30;94.30;;;;;;5061830;28;20040;-67
2022/07/02 09:09:03;;;;;;;4.43;0.50;;;25.20;93.60;;;;;;5073719;28;20051;-67
2022/07/02 09:11:30;;;;;;;1.35;0.20;;;25.20;93.90;;;;;;5066504;28;20426;-67
2022/07/02 09:13:57;;;;;;;6.82;0.32;;;25.20;93.60;;;;;;5055038;28;20118;-67
2022/07/02 09:16:23;;;;;;;4.88;0.45;;;25.30;93.20;;;;;;5059278;28;20677;-67
2022/07/02 09:18:48;;;;;;;3.35;0.20;;;25.40;93.30;;;;;;5070233;28;20044;-67
2022/07/02 09:21:14;;;;;;;3.22;0.40;;;25.40;92.60;;;;;;5062866;28;20037;-67
2022/07/02 09:23:47;;;;;;;3.55;0.30;;;25.50;92.70;;;;;;5063963;28;20089;-67
2022/07/02 09:26:24;;;;;;;0.93;0.20;;;25.40;91.50;;;;;;5081402;28;20036;-67
2022/07/02 09:29:01;;;;;;;2.38;0.30;;;25.30;91.00;;;;;;5072311;28;20888;-67
2022/07/02 09:31:28;;;;;;;1.15;0.20;;;25.30;91.90;;;;;;5069558;28;20130;-66
2022/07/02 09:33:54;;;;;;;6.18;0.50;;;25.40;92.00;;;;;;5076659;28;20075;-66
2022/07/02 09:36:21;;;;;;;3.97;0.30;;;25.40;91.80;;;;;;5058087;28;20054;-66
2022/07/02 09:38:50;;;;;;;6.07;0.57;;;25.40;91.90;;;;;;5071306;28;20509;-66
2022/07/02 09:41:21;;;;;;;0.47;0.17;;;25.30;90.90;;;;;;5058826;28;20485;-66
2022/07/02 09:44:00;;;;;;;6.38;0.50;;;25.20;91.60;;;;;;5079254;28;20056;-66
2022/07/02 09:46:28;;;;;;;6.03;0.20;;;25.10;91.80;;;;;;5076501;28;20155;-66
2022/07/02 09:48:53;;;;;;;0.85;0.30;;;24.80;92.40;;;;;;5058904;28;20044;-66
2022/07/02 09:51:19;;;;;;;0.75;0.20;;;24.90;92.50;;;;;;5078343;28;20035;-66
2022/07/02 09:53:55;;;;;;;2.55;0.30;;;24.90;91.80;;;;;;5062738;28;20032;-66
2022/07/02 09:56:23;;;;;;;9.13;0.50;;;25.00;92.90;;;;;;5076042;28;20063;-66
2022/07/02 09:58:49;;;;;;;1.85;0.20;;;24.90;92.40;;;;;;5060391;28;20036;-66
2022/07/02 10:01:22;;;;;;;2.10;0.35;;;25.00;92.90;;;;;;5057053;28;20071;-66
2022/07/02 10:03:50;;;;;;;0.70;0.20;;;25.10;92.90;;;;;;5057058;28;20066;-66
2022/07/02 10:06:17;;;;;;;10.82;0.60;;;25.20;93.40;;;;;;5062164;28;20054;-66
2022/07/02 10:08:43;;;;;;;2.40;0.20;;;25.10;92.00;;;;;;5062415;28;20119;-65
2022/07/02 10:11:11;;;;;;;2.20;0.30;;;25.30;92.30;;;;;;5080983;28;20113;-66
2022/07/02 10:13:38;;;;;;;0.73;0.15;;;25.10;91.80;;;;;;5064896;28;20118;-66
2022/07/02 10:16:11;;;;;;;3.25;0.30;;;25.10;92.10;;;;;;5078005;28;21789;-66
2022/07/02 10:18:39;;;;;;;2.00;0.30;;;25.20;93.10;;;;;;5081276;28;20398;-66
2022/07/02 10:21:05;;;;;;;1.50;0.20;;;25.40;93.90;;;;;;5080210;28;20047;-66
2022/07/02 10:23:31;;;;;;;1.38;0.20;;;25.60;91.70;;;;;;5076244;28;20064;-66
2022/07/02 10:25:57;;;;;;;2.38;0.40;;;25.60;92.70;;;;;;5067626;28;20058;-66
2022/07/02 10:28:25;;;;;;;3.55;0.30;;;25.50;91.40;;;;;;5086029;28;20043;-66
2022/07/02 10:30:54;;;;;;;6.05;0.32;;;25.60;91.70;;;;;;5085024;28;20063;-66
2022/07/02 10:33:32;;;;;;;6.50;0.50;;;25.70;91.60;;;;;;5084212;28;20050;-66
2022/07/02 10:35:59;;;;;;;3.20;0.20;;;25.80;91.10;;;;;;5044292;28;20048;-66
2022/07/02 10:38:30;;;;;;;2.30;0.22;;;25.80;90.70;;;;;;5078587;28;21145;-66
2022/07/02 10:40:55;;;;;;;1.52;0.22;;;25.80;91.00;;;;;;5077518;28;20120;-66
2022/07/02 10:43:22;;;;;;;6.95;0.30;;;25.90;91.40;;;;;;5081237;28;20127;-66
2022/07/02 10:45:48;;;;;;;5.70;0.75;;;25.80;91.30;;;;;;5080497;28;20052;-66
2022/07/02 10:48:14;;;;;;;2.35;1.02;;;25.70;90.50;;;;;;5062561;28;20456;-66
2022/07/02 10:50:45;;;;;;;2.05;0.30;;;25.80;90.40;;;;;;5079749;28;20082;-66
2022/07/02 10:53:18;;;;;;;1.73;0.20;;;25.90;91.20;;;;;;5065531;28;20046;-66
2022/07/02 10:55:57;;;;;;;1.65;0.30;;;25.90;91.50;;;;;;5085273;28;20042;-66
2022/07/02 10:58:31;;;;;;;1.25;0.30;;;26.20;91.00;;;;;;5084917;28;20117;-66
2022/07/02 11:01:10;;;;;;;1.23;0.28;;;26.20;90.70;;;;;;5060070;28;20047;-66
2022/07/02 11:03:36;;;;;;;1.55;0.20;;;26.30;91.30;;;;;;5080963;28;20048;-66
2022/07/02 11:06:06;;;;;;;1.08;0.20;;;26.30;91.40;;;;;;5062509;28;20048;-67
2022/07/02 11:08:41;;;;;;;4.13;0.77;;;26.40;90.90;;;;;;5062211;28;20055;-66
2022/07/02 11:11:07;;;;;;;3.58;0.35;;;26.60;91.50;;;;;;5075190;28;20060;-67
2022/07/02 11:13:40;;;;;;;2.13;0.47;;;26.60;89.90;;;;;;5062296;28;20047;-66
2022/07/02 11:16:22;;;;;;;1.98;0.70;;;26.50;88.00;;;;;;5079662;28;20625;-66
2022/07/02 11:18:49;;;;;;;2.50;0.30;;;26.50;88.90;;;;;;5060531;28;20058;-66
2022/07/02 11:21:16;;;;;;;3.20;0.40;;;26.60;89.50;;;;;;5081665;28;21779;-67
2022/07/02 11:23:42;;;;;;;5.00;0.32;;;26.60;90.20;;;;;;5078216;28;20071;-66
2022/07/02 11:26:08;;;;;;;4.72;0.20;;;26.40;89.80;;;;;;5065397;28;20043;-66
2022/07/02 11:28:35;;;;;;;3.80;0.45;;;26.10;90.30;;;;;;5078057;28;20035;-66
2022/07/02 11:31:04;;;;;;;3.60;0.20;;;25.80;90.00;;;;;;5079554;28;20031;-66
2022/07/02 11:33:33;;;;;;;1.33;0.20;;;25.70;90.60;;;;;;5078357;28;20040;-66
2022/07/02 11:35:59;;;;;;;2.42;0.60;;;25.60;90.30;;;;;;5082149;28;20502;-66
2022/07/02 11:38:24;;;;;;;1.60;0.20;;;25.70;90.50;;;;;;5068953;28;20147;-66
2022/07/02 11:40:50;;;;;;;3.75;0.40;;;25.80;91.20;;;;;;5083456;28;20044;-66
2022/07/02 11:43:17;;;;;;;1.63;0.30;;;25.60;90.60;;;;;;5082096;28;20075;-66
2022/07/02 11:45:47;;;;;;;1.73;0.30;;;25.40;91.30;;;;;;5076426;28;20489;-67
2022/07/02 11:48:20;;;;;;;1.00;0.30;;;25.30;91.10;;;;;;5085031;28;20035;-66
2022/07/02 11:50:56;;;;;;;2.35;0.40;;;25.20;90.70;;;;;;5082200;28;20044;-66
2022/07/02 11:53:22;;;;;;;1.60;0.30;;;24.90;90.70;;;;;;5081189;28;20039;-66
2022/07/02 11:55:47;;;;;;;2.50;0.22;;;24.70;92.00;;;;;;5062583;28;20067;-66
2022/07/02 11:58:13;;;;;;;2.30;0.35;;;24.50;91.70;;;;;;5079390;28;20043;-66
2022/07/02 12:00:38;;;;;;;1.15;0.30;;;24.50;92.00;;;;;;5079221;28;20976;-66
2022/07/02 12:03:11;;;;;;;1.60;0.40;;;24.60;92.50;;;;;;5061602;28;20050;-66
2022/07/02 12:05:48;;;;;;;2.53;0.40;;;24.80;93.20;;;;;;5063973;28;20131;-66
2022/07/02 12:08:17;;;;;;;1.98;0.20;;;25.00;92.70;;;;;;5064561;28;20974;-66
2022/07/02 12:10:43;;;;;;;2.33;0.30;;;25.20;93.30;;;;;;5079644;28;20054;-66
2022/07/02 12:13:10;;;;;;;1.33;0.30;;;25.20;92.40;;;;;;5062381;28;20043;-66
2022/07/02 12:15:49;;;;;;;0.90;0.25;;;25.30;93.30;;;;;;5059723;28;20055;-66
2022/07/02 12:18:20;;;;;;;1.83;0.20;;;25.30;92.20;;;;;;5080907;28;20036;-66
2022/07/02 12:20:46;;;;;;;5.22;0.28;;;25.10;93.60;;;;;;5060824;28;20050;-66
2022/07/02 12:23:12;;;;;;;2.35;0.50;;;25.20;93.50;;;;;;5073913;28;20044;-66
2022/07/02 12:25:43;;;;;;;1.48;0.32;;;25.30;92.50;;;;;;5061126;28;20510;-66
2022/07/02 12:29:53;;;;;;;0.43;0.13;;;25.20;92.50;;;;;;5064239;28;20086;-66
2022/07/02 12:30:54;;;;;;;;;;;25.00;92.50;;;;;;5077486;28;20473;-66
2022/07/02 12:33:35;;;;;;;0.98;0.25;;;24.80;92.40;;;;;;5076026;28;19915;-66
2022/07/02 12:36:03;;;;;;;4.95;0.40;;;24.80;93.30;;;;;;5060621;28;20044;-66
2022/07/02 12:38:29;;;;;;;2.35;0.20;;;24.90;93.90;;;;;;5060735;28;20083;-66
2022/07/02 12:40:59;;;;;;;2.38;0.38;;;24.90;93.70;;;;;;5074523;28;20558;-66
2022/07/02 12:43:25;;;;;;;1.88;0.30;;;24.90;93.00;;;;;;5059432;28;20051;-66
2022/07/02 12:45:51;;;;;;;1.00;0.60;;;24.80;91.80;;;;;;5042184;28;20092;-66
2022/07/02 12:48:16;;;;;;;2.70;1.00;;;24.90;92.50;;;;;;5061309;28;20172;-66
2022/07/02 12:50:44;;;;;;;2.33;0.30;;;25.10;92.80;;;;;;5084323;28;20032;-66